Time;durP1;ratioP1;P1;durP2;ratioP2;P2;SDS_P1;SDS_P2;PMS_P1;PMS_P2;Temp;Humidity;BMP_temperature;BMP_pressure;BME280_temperature;BME280_humidity;BME280_pressure;Samples;Min_cycle;Max_cycle;Signal;HPM_P1;HPM_P2
2023/06/08 00:01:52;;;;;;;;;;;;;;;;;;6141740;23;20290;-80
2023/06/08 00:04:19;;;;;;;;;;;;;;;;;;6165894;23;19927;-80
2023/06/08 00:06:48;;;;;;;;;;;;;;;;;;6165461;23;19936;-80
2023/06/08 00:09:17;;;;;;;;;;;;;;;;;;6141534;23;19930;-80
2023/06/08 00:11:44;;;;;;;;;;;;;;;;;;6176742;23;19920;-80
2023/06/08 00:14:13;;;;;;;;;;;;;;;;;;6164643;23;19924;-80
2023/06/08 00:16:42;;;;;;;;;;;;;;;;;;6136575;23;19924;-80
2023/06/08 00:19:11;;;;;;;;;;;;;;;;;;6140840;23;19926;-80
2023/06/08 00:21:38;;;;;;;;;;;;;;;;;;6140491;23;20367;-80
2023/06/08 00:24:06;;;;;;;;;;;;;;;;;;6140809;23;19920;-80
2023/06/08 00:26:33;;;;;;;;;;;;;;;;;;6139477;23;20265;-80
2023/06/08 00:29:00;;;;;;;;;;;;;;;;;;6140087;23;19931;-80
2023/06/08 00:31:28;;;;;;;;;;;;;;;;;;6140792;23;19924;-80
2023/06/08 00:33:58;;;;;;;;;;;;;;;;;;6141665;23;20387;-80
2023/06/08 00:36:27;;;;;;;;;;;;;;;;;;6189745;23;19924;-80
2023/06/08 00:38:55;;;;;;;;;;;;;;;;;;6140460;23;19942;-80
2023/06/08 00:41:26;;;;;;;;;;;;;;;;;;6166155;23;19920;-80
2023/06/08 00:43:54;;;;;;;;;;;;;;;;;;6139586;23;19920;-80
2023/06/08 00:46:21;;;;;;;;;;;;;;;;;;6139322;23;19942;-80
2023/06/08 00:48:50;;;;;;;;;;;;;;;;;;6139945;23;19926;-80
2023/06/08 00:51:22;;;;;;;;;;;;;;;;;;6140835;23;19927;-80
2023/06/08 00:53:51;;;;;;;;;;;;;;;;;;6141023;23;19935;-80
2023/06/08 00:56:18;;;;;;;;;;;;;;;;;;6139983;23;19926;-80
2023/06/08 00:58:50;;;;;;;;;;;;;;;;;;6166828;23;19932;-80
2023/06/08 01:01:20;;;;;;;;;;;;;;;;;;6143955;23;19926;-80
2023/06/08 01:03:50;;;;;;;;;;;;;;;;;;6166501;23;19978;-80
2023/06/08 01:06:20;;;;;;;;;;;;;;;;;;6143060;23;19930;-80
2023/06/08 01:08:53;;;;;;;;;;;;;;;;;;6175365;23;19928;-80
2023/06/08 01:11:26;;;;;;;;;;;;;;;;;;6168616;23;19920;-80
2023/06/08 01:13:55;;;;;;;;;;;;;;;;;;6177453;23;19997;-80
2023/06/08 01:16:24;;;;;;;;;;;;;;;;;;6175804;23;19921;-80
2023/06/08 01:18:53;;;;;;;;;;;;;;;;;;6141757;23;19921;-80
2023/06/08 01:21:24;;;;;;;;;;;;;;;;;;6141813;23;19928;-80
2023/06/08 01:24:10;;;;;;;;;;;;;;;;;;6143302;23;19920;-80
2023/06/08 01:26:40;;;;;;;;;;;;;;;;;;6203507;23;19921;-80
2023/06/08 01:29:15;;;;;;;;;;;;;;;;;;6142961;23;19934;-80
2023/06/08 01:31:42;;;;;;;;;;;;;;;;;;6142581;23;19924;-80
2023/06/08 01:34:14;;;;;;;;;;;;;;;;;;6166869;23;19920;-80
2023/06/08 01:36:43;;;;;;;;;;;;;;;;;;6142648;23;19924;-80
2023/06/08 01:39:17;;;;;;;;;;;;;;;;;;6163197;23;19927;-79
2023/06/08 01:41:44;;;;;;;;;;;;;;;;;;6135400;23;20336;-78
2023/06/08 01:44:15;;;;;;;;;;;;;;;;;;6160456;23;19928;-79
2023/06/08 01:46:46;;;;;;;;;;;;;;;;;;6135900;23;19928;-79
2023/06/08 01:49:13;;;;;;;;;;;;;;;;;;6158537;23;19943;-79
2023/06/08 01:51:42;;;;;;;;;;;;;;;;;;6134349;23;19924;-79
2023/06/08 01:54:09;;;;;;;;;;;;;;;;;;6134163;23;19928;-79
2023/06/08 01:56:41;;;;;;;;;;;;;;;;;;6134489;23;19928;-79
2023/06/08 01:59:10;;;;;;;;;;;;;;;;;;6133075;23;19927;-79
2023/06/08 02:01:37;;;;;;;;;;;;;;;;;;6157958;23;19924;-79
2023/06/08 02:04:05;;;;;;;;;;;;;;;;;;6159096;23;19928;-79
2023/06/08 02:06:35;;;;;;;;;;;;;;;;;;6133773;23;20259;-79
2023/06/08 02:09:04;;;;;;;;;;;;;;;;;;6134035;23;19947;-79
2023/06/08 02:11:33;;;;;;;;;;;;;;;;;;6159917;23;19927;-79
2023/06/08 02:14:01;;;;;;;;;;;;;;;;;;6160133;23;19928;-79
2023/06/08 02:16:34;;;;;;;;;;;;;;;;;;6135672;23;19920;-79
2023/06/08 02:19:04;;;;;;;;;;;;;;;;;;6135538;23;20363;-79
2023/06/08 02:21:33;;;;;;;;;;;;;;;;;;6195868;23;19921;-79
2023/06/08 02:24:00;;;;;;;;;;;;;;;;;;6135511;23;19920;-79
2023/06/08 02:26:27;;;;;;;;;;;;;;;;;;6134990;23;19931;-79
2023/06/08 02:28:57;;;;;;;;;;;;;;;;;;6160000;23;20260;-79
2023/06/08 02:31:28;;;;;;;;;;;;;;;;;;6135650;23;20352;-79
2023/06/08 02:33:57;;;;;;;;;;;;;;;;;;6169877;23;19931;-79
2023/06/08 02:36:25;;;;;;;;;;;;;;;;;;6134054;23;19920;-79
2023/06/08 02:38:54;;;;;;;;;;;;;;;;;;6134088;23;19920;-79
2023/06/08 02:41:21;;;;;;;;;;;;;;;;;;6158696;23;19927;-79
2023/06/08 02:43:49;;;;;;;;;;;;;;;;;;6133855;23;19965;-79
2023/06/08 02:46:16;;;;;;;;;;;;;;;;;;6134370;23;19920;-79
2023/06/08 02:48:45;;;;;;;;;;;;;;;;;;6132913;23;19927;-79
2023/06/08 02:51:12;;;;;;;;;;;;;;;;;;6184268;23;19924;-79
2023/06/08 02:53:41;;;;;;;;;;;;;;;;;;6159988;23;19920;-79
2023/06/08 02:56:08;;;;;;;;;;;;;;;;;;6134678;23;19921;-79
2023/06/08 02:58:36;;;;;;;;;;;;;;;;;;6159368;23;20341;-79
2023/06/08 03:01:14;;;;;;;;;;;;;;;;;;6133784;23;19927;-79
2023/06/08 03:04:02;;;;;;;;;;;;;;;;;;6133907;23;19920;-79
2023/06/08 03:06:39;;;;;;;;;;;;;;;;;;6167639;23;19921;-79
2023/06/08 03:09:11;;;;;;;;;;;;;;;;;;6165517;23;19920;-79
2023/06/08 03:11:44;;;;;;;;;;;;;;;;;;6167376;23;19920;-79
2023/06/08 03:14:12;;;;;;;;;;;;;;;;;;6132739;23;19928;-79
2023/06/08 03:16:43;;;;;;;;;;;;;;;;;;6132838;23;19943;-79
2023/06/08 03:19:12;;;;;;;;;;;;;;;;;;6133680;23;19927;-79
2023/06/08 03:21:41;;;;;;;;;;;;;;;;;;6133996;23;19920;-79
2023/06/08 03:24:10;;;;;;;;;;;;;;;;;;6134314;23;19936;-79
2023/06/08 03:26:39;;;;;;;;;;;;;;;;;;6133884;23;19920;-79
2023/06/08 03:29:09;;;;;;;;;;;;;;;;;;6135534;23;19926;-79
2023/06/08 03:31:40;;;;;;;;;;;;;;;;;;6135143;23;19920;-79
2023/06/08 03:34:16;;;;;;;;;;;;;;;;;;6133924;23;19927;-79
2023/06/08 03:36:46;;;;;;;;;;;;;;;;;;6133685;23;19921;-79
2023/06/08 03:39:19;;;;;;;;;;;;;;;;;;6140768;23;19920;-79
2023/06/08 03:41:48;;;;;;;;;;;;;;;;;;6141721;23;19920;-80
2023/06/08 03:44:16;;;;;;;;;;;;;;;;;;6165815;23;19921;-80
2023/06/08 03:46:44;;;;;;;;;;;;;;;;;;6176307;23;19926;-80
2023/06/08 03:49:15;;;;;;;;;;;;;;;;;;6165152;23;19926;-81
2023/06/08 03:51:42;;;;;;;;;;;;;;;;;;6140713;23;19928;-80
2023/06/08 03:54:12;;;;;;;;;;;;;;;;;;6141827;23;19924;-80
2023/06/08 03:56:39;;;;;;;;;;;;;;;;;;6140002;23;19943;-80
2023/06/08 03:59:12;;;;;;;;;;;;;;;;;;6143537;23;19931;-79
2023/06/08 04:01:41;;;;;;;;;;;;;;;;;;6165445;23;19920;-80
2023/06/08 04:04:12;;;;;;;;;;;;;;;;;;6176390;23;20400;-80
2023/06/08 04:06:41;;;;;;;;;;;;;;;;;;6140816;23;19921;-80
2023/06/08 04:09:10;;;;;;;;;;;;;;;;;;6142693;23;20363;-80
2023/06/08 04:11:37;;;;;;;;;;;;;;;;;;6141518;23;19924;-79
2023/06/08 04:14:04;;;;;;;;;;;;;;;;;;6142267;23;19920;-80
2023/06/08 04:16:33;;;;;;;;;;;;;;;;;;6165417;23;19924;-80
2023/06/08 04:19:01;;;;;;;;;;;;;;;;;;6140448;23;19920;-80
2023/06/08 04:21:29;;;;;;;;;;;;;;;;;;6140130;23;19920;-80
2023/06/08 04:24:06;;;;;;;;;;;;;;;;;;6176529;23;19921;-80
2023/06/08 04:26:38;;;;;;;;;;;;;;;;;;6175862;23;19920;-80
2023/06/08 04:29:06;;;;;;;;;;;;;;;;;;6140468;23;19921;-80
2023/06/08 04:31:37;;;;;;;;;;;;;;;;;;6140805;23;19925;-80
2023/06/08 04:34:07;;;;;;;;;;;;;;;;;;6141095;23;19930;-80
2023/06/08 04:36:40;;;;;;;;;;;;;;;;;;6143254;23;19924;-80
2023/06/08 04:39:11;;;;;;;;;;;;;;;;;;6174418;23;19931;-79
2023/06/08 04:41:41;;;;;;;;;;;;;;;;;;6143816;23;19921;-79
2023/06/08 04:44:10;;;;;;;;;;;;;;;;;;6144753;23;20252;-79
2023/06/08 04:46:38;;;;;;;;;;;;;;;;;;6141431;23;19924;-80
2023/06/08 04:49:05;;;;;;;;;;;;;;;;;;6139903;23;20260;-81
2023/06/08 04:51:32;;;;;;;;;;;;;;;;;;6143488;23;19921;-80
2023/06/08 04:54:00;;;;;;;;;;;;;;;;;;6167670;23;19921;-81
2023/06/08 04:56:29;;;;;;;;;;;;;;;;;;6144296;23;19921;-80
2023/06/08 04:58:59;;;;;;;;;;;;;;;;;;6143189;23;19924;-80
2023/06/08 05:01:26;;;;;;;;;;;;;;;;;;6163889;23;20345;-80
2023/06/08 05:03:56;;;;;;;;;;;;;;;;;;6162419;23;19927;-80
2023/06/08 05:06:27;;;;;;;;;;;;;;;;;;6137392;23;19931;-80
2023/06/08 05:08:57;;;;;;;;;;;;;;;;;;6136296;23;19924;-80
2023/06/08 05:11:24;;;;;;;;;;;;;;;;;;6136253;23;19929;-80
2023/06/08 05:13:53;;;;;;;;;;;;;;;;;;6137264;23;19927;-80
2023/06/08 05:16:24;;;;;;;;;;;;;;;;;;6187550;23;19924;-80
2023/06/08 05:18:51;;;;;;;;;;;;;;;;;;6187850;23;19920;-80
2023/06/08 05:21:18;;;;;;;;;;;;;;;;;;6138410;23;19920;-80
2023/06/08 05:23:48;;;;;;;;;;;;;;;;;;6160310;23;19924;-80
2023/06/08 05:26:15;;;;;;;;;;;;;;;;;;6160298;23;19960;-80
2023/06/08 05:28:44;;;;;;;;;;;;;;;;;;6136548;23;19935;-80
2023/06/08 05:31:13;;;;;;;;;;;;;;;;;;6162700;23;19927;-80
2023/06/08 05:33:40;;;;;;;;;;;;;;;;;;6161418;23;19921;-80
2023/06/08 05:36:07;;;;;;;;;;;;;;;;;;6137044;23;20108;-80
2023/06/08 05:38:34;;;;;;;;;;;;;;;;;;6162288;23;19924;-80
2023/06/08 05:41:04;;;;;;;;;;;;;;;;;;6162244;23;20408;-80
2023/06/08 05:43:31;;;;;;;;;;;;;;;;;;6137321;23;19926;-80
2023/06/08 05:45:58;;;;;;;;;;;;;;;;;;6187677;23;20249;-79
2023/06/08 05:48:30;;;;;;;;;;;;;;;;;;6158460;23;19931;-79
2023/06/08 05:50:59;;;;;;;;;;;;;;;;;;6193082;23;19920;-79
2023/06/08 05:53:29;;;;;;;;;;;;;;;;;;6142349;23;19927;-79
2023/06/08 05:55:59;;;;;;;;;;;;;;;;;;6137784;23;19927;-81
2023/06/08 05:58:26;;;;;;;;;;;;;;;;;;6141972;23;19920;-80
2023/06/08 06:00:53;;;;;;;;;;;;;;;;;;6166909;23;19928;-80
2023/06/08 06:03:21;;;;;;;;;;;;;;;;;;6196217;23;19921;-80
2023/06/08 06:05:50;;;;;;;;;;;;;;;;;;6139866;23;20299;-80
2023/06/08 06:08:17;;;;;;;;;;;;;;;;;;6165356;23;19924;-80
2023/06/08 06:10:44;;;;;;;;;;;;;;;;;;6142148;23;19920;-81
2023/06/08 06:13:13;;;;;;;;;;;;;;;;;;6166638;23;19926;-81
2023/06/08 06:15:41;;;;;;;;;;;;;;;;;;6141134;23;20238;-80
2023/06/08 06:18:10;;;;;;;;;;;;;;;;;;6136927;23;20375;-79
2023/06/08 06:20:39;;;;;;;;;;;;;;;;;;6134980;23;19926;-79
2023/06/08 06:23:08;;;;;;;;;;;;;;;;;;6159511;23;19920;-80
2023/06/08 06:25:38;;;;;;;;;;;;;;;;;;6134626;23;20345;-80
2023/06/08 06:28:07;;;;;;;;;;;;;;;;;;6186080;23;19921;-80
2023/06/08 06:30:34;;;;;;;;;;;;;;;;;;6158298;23;20234;-80
2023/06/08 06:33:04;;;;;;;;;;;;;;;;;;6159162;23;20283;-80
2023/06/08 06:35:35;;;;;;;;;;;;;;;;;;6136476;23;19968;-80
2023/06/08 06:38:04;;;;;;;;;;;;;;;;;;6172002;23;19931;-80
2023/06/08 06:40:33;;;;;;;;;;;;;;;;;;6161642;23;19920;-80
2023/06/08 06:43:00;;;;;;;;;;;;;;;;;;6135819;23;20360;-80
2023/06/08 06:45:40;;;;;;;;;;;;;;;;;;6136564;23;19920;-80
2023/06/08 06:48:10;;;;;;;;;;;;;;;;;;6183261;23;19920;-80
2023/06/08 06:50:37;;;;;;;;;;;;;;;;;;6134037;23;20261;-80
2023/06/08 06:53:07;;;;;;;;;;;;;;;;;;6159302;23;19925;-80
2023/06/08 06:55:35;;;;;;;;;;;;;;;;;;6136778;23;19920;-80
2023/06/08 06:58:04;;;;;;;;;;;;;;;;;;6134857;23;20376;-80
2023/06/08 07:00:37;;;;;;;;;;;;;;;;;;6160367;23;20269;-81
2023/06/08 07:03:09;;;;;;;;;;;;;;;;;;6159397;23;19924;-81
2023/06/08 07:05:36;;;;;;;;;;;;;;;;;;6134403;23;19939;-81
2023/06/08 07:08:06;;;;;;;;;;;;;;;;;;6187624;23;20161;-81
2023/06/08 07:10:37;;;;;;;;;;;;;;;;;;6158004;23;19927;-78
2023/06/08 07:13:06;;;;;;;;;;;;;;;;;;6156874;23;19928;-78
2023/06/08 07:15:38;;;;;;;;;;;;;;;;;;6157166;23;19924;-79
2023/06/08 07:18:08;;;;;;;;;;;;;;;;;;6133821;23;19920;-79
2023/06/08 07:20:37;;;;;;;;;;;;;;;;;;6184378;23;19924;-79
2023/06/08 07:23:09;;;;;;;;;;;;;;;;;;6135190;23;19920;-79
2023/06/08 07:25:38;;;;;;;;;;;;;;;;;;6134978;23;19947;-80
2023/06/08 07:28:05;;;;;;;;;;;;;;;;;;6159603;23;19920;-79
2023/06/08 07:30:34;;;;;;;;;;;;;;;;;;6159265;23;20253;-79
2023/06/08 07:33:06;;;;;;;;;;;;;;;;;;6196233;23;19924;-79
2023/06/08 07:35:33;;;;;;;;;;;;;;;;;;6135720;23;20264;-81
2023/06/08 07:38:06;;;;;;;;;;;;;;;;;;6196777;23;20252;-81
2023/06/08 07:40:36;;;;;;;;;;;;;;;;;;6160009;23;20244;-81
2023/06/08 07:43:15;;;;;;;;;;;;;;;;;;6196985;23;19927;-81
2023/06/08 07:45:42;;;;;;;;;;;;;;;;;;6161142;23;19924;-80
2023/06/08 07:48:18;;;;;;;;;;;;;;;;;;6136302;23;19920;-80
2023/06/08 07:51:11;;;;;;;;;;;;;;;;;;6189721;23;19920;-81
2023/06/08 07:53:38;;;;;;;;;;;;;;;;;;6162178;23;19974;-80
2023/06/08 07:56:08;;;;;;;;;;;;;;;;;;6161614;23;19920;-80
2023/06/08 07:59:02;;;;;;;;;;;;;;;;;;6161060;23;20356;-81
2023/06/08 08:01:29;;;;;;;;;;;;;;;;;;6187176;23;20359;-80
2023/06/08 08:03:56;;;;;;;;;;;;;;;;;;6161871;23;19928;-81
2023/06/08 08:06:25;;;;;;;;;;;;;;;;;;6164734;23;19930;-81
2023/06/08 08:08:54;;;;;;;;;;;;;;;;;;6139045;23;19920;-82
2023/06/08 08:11:23;;;;;;;;;;;;;;;;;;6191348;23;19920;-81
2023/06/08 08:13:52;;;;;;;;;;;;;;;;;;6165367;23;19924;-82
2023/06/08 08:16:31;;;;;;;;;;;;;;;;;;6140733;23;19924;-81
2023/06/08 08:19:08;;;;;;;;;;;;;;;;;;6141093;23;19926;-82
2023/06/08 08:21:37;;;;;;;;;;;;;;;;;;6165434;23;19924;-81
2023/06/08 08:24:07;;;;;;;;;;;;;;;;;;6163957;23;19935;-82
2023/06/08 08:26:37;;;;;;;;;;;;;;;;;;6140082;23;19930;-82
2023/06/08 08:29:07;;;;;;;;;;;;;;;;;;6170627;23;20284;-82
2023/06/08 08:31:38;;;;;;;;;;;;;;;;;;6137511;23;19924;-81
2023/06/08 08:34:05;;;;;;;;;;;;;;;;;;6158631;23;19938;-80
2023/06/08 08:36:32;;;;;;;;;;;;;;;;;;6169913;23;19921;-82
2023/06/08 08:39:01;;;;;;;;;;;;;;;;;;6161632;23;19921;-82
2023/06/08 08:41:28;;;;;;;;;;;;;;;;;;6138045;23;19921;-82
2023/06/08 08:43:57;;;;;;;;;;;;;;;;;;6135136;23;19927;-82
2023/06/08 08:46:46;;;;;;;;;;;;;;;;;;6136757;22;19924;-82
2023/06/08 08:49:17;;;;;;;;;;;;;;;;;;6164941;23;19927;-80
2023/06/08 08:51:49;;;;;;;;;;;;;;;;;;6085793;23;20391;-80
2023/06/08 08:54:31;;;;;;;;;;;;;;;;;;6109411;23;19921;-81
2023/06/08 08:56:59;;;;;;;;;;;;;;;;;;6144986;23;19927;-81
2023/06/08 08:59:29;;;;;;;;;;;;;;;;;;6109388;23;19921;-81
2023/06/08 09:01:56;;;;;;;;;;;;;;;;;;6109323;23;19921;-81
2023/06/08 09:04:26;;;;;;;;;;;;;;;;;;6085418;23;19928;-81
2023/06/08 09:06:56;;;;;;;;;;;;;;;;;;6166761;23;19921;-81
2023/06/08 09:09:24;;;;;;;;;;;;;;;;;;6158079;23;19947;-81
2023/06/08 09:11:58;;;;;;;;;;;;;;;;;;6108859;23;19936;-81
2023/06/08 09:14:25;;;;;;;;;;;;;;;;;;6085751;23;19936;-81
2023/06/08 09:16:53;;;;;;;;;;;;;;;;;;6132714;23;19925;-81
2023/06/08 09:19:20;;;;;;;;;;;;;;;;;;6106272;23;19925;-81
2023/06/08 09:21:51;;;;;;;;;;;;;;;;;;6129584;23;20346;-81
2023/06/08 09:24:19;;;;;;;;;;;;;;;;;;6105620;23;19924;-81
2023/06/08 09:26:50;;;;;;;;;;;;;;;;;;6105347;23;19920;-79
2023/06/08 09:29:34;;;;;;;;;;;;;;;;;;6080339;23;19928;-81
2023/06/08 09:32:02;;;;;;;;;;;;;;;;;;6127896;23;19921;-80
2023/06/08 09:34:33;;;;;;;;;;;;;;;;;;6127997;23;19921;-81
2023/06/08 09:37:07;;;;;;;;;;;;;;;;;;6110848;23;19925;-81
2023/06/08 09:39:40;;;;;;;;;;;;;;;;;;6103136;23;19924;-82
2023/06/08 09:42:10;;;;;;;;;;;;;;;;;;6129570;23;19921;-80
2023/06/08 09:44:40;;;;;;;;;;;;;;;;;;6104016;23;19932;-81
2023/06/08 09:47:25;;;;;;;;;;;;;;;;;;6085341;23;19921;-80
2023/06/08 09:49:54;;;;;;;;;;;;;;;;;;6134027;23;19921;-81
2023/06/08 09:52:25;;;;;;;;;;;;;;;;;;6056476;23;19925;-81
2023/06/08 09:54:52;;;;;;;;;;;;;;;;;;6085175;23;19948;-81
2023/06/08 09:57:20;;;;;;;;;;;;;;;;;;5981350;23;19930;-81
2023/06/08 09:59:52;;;;;;;;;;;;;;;;;;5989180;23;19923;-81
2023/06/08 10:02:28;;;;;;;;;;;;;;;;;;6014341;23;19926;-81
2023/06/08 10:05:09;;;;;;;;;;;;;;;;;;6014113;23;20209;-81
2023/06/08 10:07:37;;;;;;;;;;;;;;;;;;6014332;23;19922;-81
2023/06/08 10:10:09;;;;;;;;;;;;;;;;;;6036717;23;19923;-80
2023/06/08 10:12:36;;;;;;;;;;;;;;;;;;5988383;23;19933;-80
2023/06/08 10:15:06;;;;;;;;;;;;;;;;;;6013411;23;19926;-80
2023/06/08 10:17:33;;;;;;;;;;;;;;;;;;6012992;23;19938;-81
2023/06/08 10:20:03;;;;;;;;;;;;;;;;;;6011323;23;19927;-81
2023/06/08 10:22:39;;;;;;;;;;;;;;;;;;5988202;23;19922;-81
2023/06/08 10:25:06;;;;;;;;;;;;;;;;;;6021614;23;19923;-81
2023/06/08 10:27:36;;;;;;;;;;;;;;;;;;6010370;23;19927;-81
2023/06/08 10:30:06;;;;;;;;;;;;;;;;;;6013177;23;20328;-81
2023/06/08 10:32:38;;;;;;;;;;;;;;;;;;6035045;23;20271;-81
2023/06/08 10:35:08;;;;;;;;;;;;;;;;;;6015703;23;20339;-81
2023/06/08 10:37:44;;;;;;;;;;;;;;;;;;6017402;23;19930;-80
2023/06/08 10:40:12;;;;;;;;;;;;;;;;;;5994167;23;19929;-80
2023/06/08 10:42:50;;;;;;;;;;;;;;;;;;6016223;23;19926;-80
2023/06/08 10:45:22;;;;;;;;;;;;;;;;;;6025838;23;20256;-80
2023/06/08 10:47:51;;;;;;;;;;;;;;;;;;6017006;23;20263;-80
2023/06/08 10:50:19;;;;;;;;;;;;;;;;;;6017578;23;19926;-80
2023/06/08 10:52:50;;;;;;;;;;;;;;;;;;6016458;23;19933;-80
2023/06/08 10:55:17;;;;;;;;;;;;;;;;;;5992478;23;19926;-80
2023/06/08 10:57:45;;;;;;;;;;;;;;;;;;6036387;23;19922;-80
2023/06/08 11:00:35;;;;;;;;;;;;;;;;;;6073004;23;20276;-80
2023/06/08 11:03:04;;;;;;;;;;;;;;;;;;6071825;23;20339;-80
2023/06/08 11:05:43;;;;;;;;;;;;;;;;;;5118199;27;19916;-79
2023/06/08 11:08:10;;;;;;;;;;;;;;;;;;5079106;28;20555;-79
2023/06/08 11:10:39;;;;;;;;;;;;;;;;;;5076816;28;19928;-79
2023/06/08 11:13:07;;;;;;;;;;;;;;;;;;5069998;28;20521;-79
2023/06/08 11:15:37;;;;;;;;;;;;;;;;;;5092586;28;19931;-79
2023/06/08 11:18:07;;;;;;;;;;;;;;;;;;5091648;28;19928;-79
2023/06/08 11:20:35;;;;;;;;;;;;;;;;;;5093790;28;19929;-79
2023/06/08 11:23:08;;;;;;;;;;;;;;;;;;5070697;28;20298;-79
2023/06/08 11:25:37;;;;;;;;;;;;;;;;;;5070014;28;19929;-79
2023/06/08 11:28:08;;;;;;;;;;;;;;;;;;5080251;28;19929;-79
2023/06/08 11:30:38;;;;;;;;;;;;;;;;;;5078728;28;19932;-79
2023/06/08 11:33:06;;;;;;;;;;;;;;;;;;5071704;28;19939;-79
2023/06/08 11:35:35;;;;;;;;;;;;;;;;;;5076765;28;19928;-79
2023/06/08 11:38:02;;;;;;;;;;;;;;;;;;5077300;28;19928;-79
2023/06/08 11:40:34;;;;;;;;;;;;;;;;;;5057662;28;19924;-79
2023/06/08 11:43:05;;;;;;;;;;;;;;;;;;5080511;28;19924;-80
2023/06/08 11:45:32;;;;;;;;;;;;;;;;;;5095956;28;19935;-80
2023/06/08 11:48:02;;;;;;;;;;;;;;;;;;5078090;28;19951;-79
2023/06/08 11:50:29;;;;;;;;;;;;;;;;;;5075008;28;19931;-79
2023/06/08 11:52:57;;;;;;;;;;;;;;;;;;5069443;28;20294;-79
2023/06/08 11:55:25;;;;;;;;;;;;;;;;;;5070064;28;19936;-79
2023/06/08 11:57:54;;;;;;;;;;;;;;;;;;5070399;28;19928;-79
2023/06/08 12:00:22;;;;;;;;;;;;;;;;;;5073116;28;19928;-79
2023/06/08 12:02:49;;;;;;;;;;;;;;;;;;5076820;28;20299;-79
2023/06/08 12:05:20;;;;;;;;;;;;;;;;;;5082615;28;19933;-79
2023/06/08 12:07:56;;;;;;;;;;;;;;;;;;5082241;28;19924;-79
2023/06/08 12:10:24;;;;;;;;;;;;;;;;;;5069093;28;19933;-81
2023/06/08 12:12:55;;;;;;;;;;;;;;;;;;5088598;28;19925;-81
2023/06/08 12:15:24;;;;;;;;;;;;;;;;;;5076054;28;19928;-81
2023/06/08 12:17:58;;;;;;;;;;;;;;;;;;5055647;28;20413;-81
2023/06/08 12:20:33;;;;;;;;;;;;;;;;;;5056182;28;19932;-81
2023/06/08 12:23:00;;;;;;;;;;;;;;;;;;5059225;28;19925;-80
2023/06/08 12:25:29;;;;;;;;;;;;;;;;;;5046419;28;19925;-81
2023/06/08 12:27:58;;;;;;;;;;;;;;;;;;5056000;28;19924;-81
2023/06/08 12:30:32;;;;;;;;;;;;;;;;;;5038550;28;19933;-81
2023/06/08 12:33:00;;;;;;;;;;;;;;;;;;5059026;28;19925;-81
2023/06/08 12:35:27;;;;;;;;;;;;;;;;;;5064334;28;19929;-81
2023/06/08 12:37:58;;;;;;;;;;;;;;;;;;5065769;28;19928;-81
2023/06/08 12:40:26;;;;;;;;;;;;;;;;;;5055056;28;19925;-81
2023/06/08 12:42:59;;;;;;;;;;;;;;;;;;5037901;28;19929;-81
2023/06/08 12:45:28;;;;;;;;;;;;;;;;;;5074241;28;19924;-81
2023/06/08 12:47:58;;;;;;;;;;;;;;;;;;5065356;28;19948;-81
2023/06/08 12:50:29;;;;;;;;;;;;;;;;;;5068939;28;19939;-80
2023/06/08 12:52:57;;;;;;;;;;;;;;;;;;5047395;28;19925;-80
2023/06/08 12:55:24;;;;;;;;;;;;;;;;;;5070746;28;19924;-81
2023/06/08 12:57:53;;;;;;;;;;;;;;;;;;5081131;28;19932;-81
2023/06/08 13:00:22;;;;;;;;;;;;;;;;;;5083108;28;19924;-81
2023/06/08 13:02:52;;;;;;;;;;;;;;;;;;5066268;28;19929;-80
2023/06/08 13:05:21;;;;;;;;;;;;;;;;;;5067131;28;19929;-80
2023/06/08 13:07:50;;;;;;;;;;;;;;;;;;5071582;28;19925;-81
2023/06/08 13:10:17;;;;;;;;;;;;;;;;;;5068060;28;19931;-80
2023/06/08 13:12:45;;;;;;;;;;;;;;;;;;5067699;28;19929;-80
2023/06/08 13:15:14;;;;;;;;;;;;;;;;;;5085145;28;19925;-80
2023/06/08 13:17:44;;;;;;;;;;;;;;;;;;5038646;28;19936;-80
2023/06/08 13:20:11;;;;;;;;;;;;;;;;;;5053939;28;19925;-80
2023/06/08 13:22:43;;;;;;;;;;;;;;;;;;5080749;28;19933;-80
2023/06/08 13:25:12;;;;;;;;;;;;;;;;;;5051318;28;19928;-80
2023/06/08 13:27:43;;;;;;;;;;;;;;;;;;5048302;28;19929;-80
2023/06/08 13:30:10;;;;;;;;;;;;;;;;;;5035045;28;20391;-80
2023/06/08 13:32:37;;;;;;;;;;;;;;;;;;5055365;28;19928;-80
2023/06/08 13:35:08;;;;;;;;;;;;;;;;;;5094171;28;19933;-80
2023/06/08 13:37:37;;;;;;;;;;;;;;;;;;5042065;28;19929;-80
2023/06/08 13:40:05;;;;;;;;;;;;;;;;;;5054018;28;19924;-80
2023/06/08 13:42:32;;;;;;;;;;;;;;;;;;5053030;28;19933;-80
2023/06/08 13:45:01;;;;;;;;;;;;;;;;;;5041702;28;19925;-80
2023/06/08 13:47:31;;;;;;;;;;;;;;;;;;5056598;28;19932;-81
2023/06/08 13:50:00;;;;;;;;;;;;;;;;;;5046475;28;19943;-81
2023/06/08 13:52:29;;;;;;;;;;;;;;;;;;5054809;28;19933;-81
2023/06/08 13:54:56;;;;;;;;;;;;;;;;;;5056454;28;19925;-80
2023/06/08 13:57:23;;;;;;;;;;;;;;;;;;5051452;28;19932;-80
2023/06/08 13:59:51;;;;;;;;;;;;;;;;;;5053107;28;19932;-80
2023/06/08 14:02:20;;;;;;;;;;;;;;;;;;5051817;28;19948;-80
2023/06/08 14:04:50;;;;;;;;;;;;;;;;;;5067646;28;19925;-80
2023/06/08 14:07:19;;;;;;;;;;;;;;;;;;5052692;28;19925;-80
2023/06/08 14:09:50;;;;;;;;;;;;;;;;;;5050129;28;19932;-80
2023/06/08 14:12:20;;;;;;;;;;;;;;;;;;5050525;28;19925;-80
2023/06/08 14:14:49;;;;;;;;;;;;;;;;;;5084025;28;20342;-80
2023/06/08 14:17:17;;;;;;;;;;;;;;;;;;5053842;28;20406;-80
2023/06/08 14:19:44;;;;;;;;;;;;;;;;;;5053122;28;19931;-81
2023/06/08 14:22:14;;;;;;;;;;;;;;;;;;5053417;28;20394;-81
2023/06/08 14:24:45;;;;;;;;;;;;;;;;;;5078806;28;19925;-81
2023/06/08 14:27:16;;;;;;;;;;;;;;;;;;5054917;28;19925;-81
2023/06/08 14:29:46;;;;;;;;;;;;;;;;;;5055184;28;19925;-80
2023/06/08 14:32:16;;;;;;;;;;;;;;;;;;5070843;28;19925;-80
2023/06/08 14:34:45;;;;;;;;;;;;;;;;;;5040226;28;19932;-80
2023/06/08 14:37:15;;;;;;;;;;;;;;;;;;5056832;28;20390;-80
2023/06/08 14:39:44;;;;;;;;;;;;;;;;;;5044817;28;19931;-80
2023/06/08 14:42:11;;;;;;;;;;;;;;;;;;5045355;28;19936;-80
2023/06/08 14:44:40;;;;;;;;;;;;;;;;;;5075089;28;20302;-80
2023/06/08 14:47:07;;;;;;;;;;;;;;;;;;5058704;28;20413;-80
2023/06/08 14:49:37;;;;;;;;;;;;;;;;;;5039892;28;19929;-80
2023/06/08 14:52:07;;;;;;;;;;;;;;;;;;5054861;28;19936;-80
2023/06/08 14:54:39;;;;;;;;;;;;;;;;;;5055566;28;19924;-80
2023/06/08 14:57:08;;;;;;;;;;;;;;;;;;5065880;28;19940;-80
2023/06/08 14:59:41;;;;;;;;;;;;;;;;;;5056432;28;19948;-80
2023/06/08 15:02:10;;;;;;;;;;;;;;;;;;5054399;28;20391;-80
2023/06/08 15:04:37;;;;;;;;;;;;;;;;;;5070852;28;19965;-80
2023/06/08 15:07:04;;;;;;;;;;;;;;;;;;5055264;28;19932;-80
2023/06/08 15:09:34;;;;;;;;;;;;;;;;;;5062124;28;20317;-80
2023/06/08 15:12:01;;;;;;;;;;;;;;;;;;5060545;28;20319;-80
2023/06/08 15:14:32;;;;;;;;;;;;;;;;;;5047635;28;20421;-80
2023/06/08 15:17:01;;;;;;;;;;;;;;;;;;5056282;28;19947;-80
2023/06/08 15:19:28;;;;;;;;;;;;;;;;;;5058769;28;19924;-80
2023/06/08 15:21:58;;;;;;;;;;;;;;;;;;5064220;28;19924;-80
2023/06/08 15:24:25;;;;;;;;;;;;;;;;;;5040888;28;19925;-80
2023/06/08 15:26:54;;;;;;;;;;;;;;;;;;5057830;28;19948;-80
2023/06/08 15:29:21;;;;;;;;;;;;;;;;;;5057357;28;20306;-80
2023/06/08 15:31:48;;;;;;;;;;;;;;;;;;5073323;28;19925;-80
2023/06/08 15:34:17;;;;;;;;;;;;;;;;;;5049379;28;19932;-81
2023/06/08 15:36:44;;;;;;;;;;;;;;;;;;5033343;28;19925;-81
2023/06/08 15:39:16;;;;;;;;;;;;;;;;;;5043001;28;19924;-81
2023/06/08 15:41:46;;;;;;;;;;;;;;;;;;5047786;28;19924;-81
2023/06/08 15:44:13;;;;;;;;;;;;;;;;;;5052192;28;20402;-81
2023/06/08 15:46:42;;;;;;;;;;;;;;;;;;5069255;28;19929;-81
2023/06/08 15:49:13;;;;;;;;;;;;;;;;;;5095103;28;19929;-81
2023/06/08 15:51:43;;;;;;;;;;;;;;;;;;5072638;28;19931;-81
2023/06/08 15:54:10;;;;;;;;;;;;;;;;;;5071429;28;19929;-81
2023/06/08 15:56:37;;;;;;;;;;;;;;;;;;5052521;28;19933;-80
2023/06/08 15:59:04;;;;;;;;;;;;;;;;;;5051628;28;19936;-80
2023/06/08 16:01:37;;;;;;;;;;;;;;;;;;5052858;28;20406;-81
2023/06/08 16:04:06;;;;;;;;;;;;;;;;;;5050781;28;19925;-81
2023/06/08 16:06:35;;;;;;;;;;;;;;;;;;5076680;28;20390;-81
2023/06/08 16:09:04;;;;;;;;;;;;;;;;;;5052044;28;19932;-81
2023/06/08 16:11:33;;;;;;;;;;;;;;;;;;5070984;28;20302;-81
2023/06/08 16:14:04;;;;;;;;;;;;;;;;;;5063288;28;20386;-81
2023/06/08 16:16:31;;;;;;;;;;;;;;;;;;5034434;28;19940;-81
2023/06/08 16:18:58;;;;;;;;;;;;;;;;;;5047426;28;19925;-81
2023/06/08 16:21:25;;;;;;;;;;;;;;;;;;5048644;28;19933;-81
2023/06/08 16:23:53;;;;;;;;;;;;;;;;;;5068141;28;20379;-81
2023/06/08 16:26:21;;;;;;;;;;;;;;;;;;5039048;28;19929;-80
2023/06/08 16:28:53;;;;;;;;;;;;;;;;;;5089133;28;19987;-80
2023/06/08 16:31:23;;;;;;;;;;;;;;;;;;5045977;28;19925;-81
2023/06/08 16:33:52;;;;;;;;;;;;;;;;;;5060183;28;20388;-81
2023/06/08 16:36:20;;;;;;;;;;;;;;;;;;5055981;28;19948;-81
2023/06/08 16:38:50;;;;;;;;;;;;;;;;;;5057120;28;19925;-81
2023/06/08 16:41:20;;;;;;;;;;;;;;;;;;5058564;28;19936;-81
2023/06/08 16:43:48;;;;;;;;;;;;;;;;;;5056720;28;19932;-80
2023/06/08 16:46:21;;;;;;;;;;;;;;;;;;5053708;28;20292;-80
2023/06/08 16:48:48;;;;;;;;;;;;;;;;;;5057582;28;19925;-80
2023/06/08 16:51:15;;;;;;;;;;;;;;;;;;5070221;28;20544;-80
2023/06/08 16:53:45;;;;;;;;;;;;;;;;;;5071827;28;19956;-80
2023/06/08 16:56:15;;;;;;;;;;;;;;;;;;5071867;28;19925;-80
2023/06/08 16:58:44;;;;;;;;;;;;;;;;;;5036119;28;19940;-80
2023/06/08 17:01:17;;;;;;;;;;;;;;;;;;5073297;28;20395;-80
2023/06/08 17:03:46;;;;;;;;;;;;;;;;;;5056112;28;19925;-80